sensor_id;sensor_type;location;lat;lon;timestamp;P1;durP1;ratioP1;P2;durP2;ratioP2
26588;SDS011;14235;48.532;8.722;2023-04-01T00:01:35;2.88;;;1.23;;
26588;SDS011;14235;48.532;8.722;2023-04-01T00:04:00;2.30;;;1.02;;
26588;SDS011;14235;48.532;8.722;2023-04-01T00:06:27;3.30;;;1.23;;
26588;SDS011;14235;48.532;8.722;2023-04-01T00:08:53;2.20;;;1.10;;
26588;SDS011;14235;48.532;8.722;2023-04-01T00:11:19;2.83;;;1.50;;
26588;SDS011;14235;48.532;8.722;2023-04-01T00:13:44;1.98;;;1.10;;
26588;SDS011;14235;48.532;8.722;2023-04-01T00:16:10;0.98;;;0.80;;
26588;SDS011;14235;48.532;8.722;2023-04-01T00:18:36;1.63;;;0.80;;
26588;SDS011;14235;48.532;8.722;2023-04-01T00:21:02;1.55;;;1.00;;
26588;SDS011;14235;48.532;8.722;2023-04-01T00:23:27;0.77;;;0.77;;
26588;SDS011;14235;48.532;8.722;2023-04-01T00:25:53;1.65;;;0.80;;
26588;SDS011;14235;48.532;8.722;2023-04-01T00:28:19;3.08;;;0.90;;
26588;SDS011;14235;48.532;8.722;2023-04-01T00:30:45;1.17;;;0.65;;
26588;SDS011;14235;48.532;8.722;2023-04-01T00:33:11;2.03;;;0.77;;
26588;SDS011;14235;48.532;8.722;2023-04-01T00:35:36;1.85;;;0.70;;
26588;SDS011;14235;48.532;8.722;2023-04-01T00:38:02;3.25;;;0.85;;
26588;SDS011;14235;48.532;8.722;2023-04-01T00:40:31;2.97;;;0.60;;
26588;SDS011;14235;48.532;8.722;2023-04-01T00:43:02;1.42;;;0.65;;
26588;SDS011;14235;48.532;8.722;2023-04-01T00:45:35;2.42;;;0.80;;
26588;SDS011;14235;48.532;8.722;2023-04-01T00:48:11;1.10;;;0.70;;
26588;SDS011;14235;48.532;8.722;2023-04-01T00:50:40;1.23;;;0.50;;
26588;SDS011;14235;48.532;8.722;2023-04-01T00:53:09;1.35;;;0.70;;
26588;SDS011;14235;48.532;8.722;2023-04-01T00:55:36;1.25;;;0.60;;
26588;SDS011;14235;48.532;8.722;2023-04-01T00:58:07;0.65;;;0.38;;
26588;SDS011;14235;48.532;8.722;2023-04-01T01:00:38;1.67;;;0.50;;
26588;SDS011;14235;48.532;8.722;2023-04-01T01:03:04;1.08;;;0.60;;
26588;SDS011;14235;48.532;8.722;2023-04-01T01:05:34;1.52;;;0.77;;
26588;SDS011;14235;48.532;8.722;2023-04-01T01:08:22;1.10;;;0.80;;
26588;SDS011;14235;48.532;8.722;2023-04-01T01:11:11;1.67;;;0.55;;
26588;SDS011;14235;48.532;8.722;2023-04-01T01:13:43;0.73;;;0.30;;
26588;SDS011;14235;48.532;8.722;2023-04-01T01:16:39;2.10;;;0.57;;
26588;SDS011;14235;48.532;8.722;2023-04-01T01:22:10;2.40;;;0.55;;
26588;SDS011;14235;48.532;8.722;2023-04-01T01:24:50;0.40;;;0.40;;
26588;SDS011;14235;48.532;8.722;2023-04-01T01:27:21;2.25;;;0.40;;
26588;SDS011;14235;48.532;8.722;2023-04-01T01:32:40;0.63;;;0.35;;
26588;SDS011;14235;48.532;8.722;2023-04-01T01:38:03;0.40;;;0.28;;
26588;SDS011;14235;48.532;8.722;2023-04-01T01:40:33;0.30;;;0.30;;
26588;SDS011;14235;48.532;8.722;2023-04-01T01:43:03;0.65;;;0.20;;
26588;SDS011;14235;48.532;8.722;2023-04-01T01:45:34;0.30;;;0.10;;
26588;SDS011;14235;48.532;8.722;2023-04-01T01:48:04;0.28;;;0.28;;
26588;SDS011;14235;48.532;8.722;2023-04-01T01:50:31;0.40;;;0.40;;
26588;SDS011;14235;48.532;8.722;2023-04-01T01:53:04;0.10;;;0.10;;
26588;SDS011;14235;48.532;8.722;2023-04-01T01:55:36;0.82;;;0.50;;
26588;SDS011;14235;48.532;8.722;2023-04-01T01:58:11;0.40;;;0.30;;
26588;SDS011;14235;48.532;8.722;2023-04-01T02:00:43;0.40;;;0.20;;
26588;SDS011;14235;48.532;8.722;2023-04-01T02:03:12;0.17;;;0.17;;
26588;SDS011;14235;48.532;8.722;2023-04-01T02:05:39;0.85;;;0.30;;
26588;SDS011;14235;48.532;8.722;2023-04-01T02:08:16;1.08;;;0.25;;
26588;SDS011;14235;48.532;8.722;2023-04-01T02:11:02;0.20;;;0.20;;
26588;SDS011;14235;48.532;8.722;2023-04-01T02:13:34;1.48;;;0.10;;
26588;SDS011;14235;48.532;8.722;2023-04-01T02:16:02;1.08;;;0.10;;
26588;SDS011;14235;48.532;8.722;2023-04-01T02:18:33;0.52;;;0.10;;
26588;SDS011;14235;48.532;8.722;2023-04-01T02:21:00;0.38;;;0.20;;
26588;SDS011;14235;48.532;8.722;2023-04-01T02:23:27;0.70;;;0.22;;
26588;SDS011;14235;48.532;8.722;2023-04-01T02:25:53;0.30;;;0.10;;
26588;SDS011;14235;48.532;8.722;2023-04-01T02:31:11;0.77;;;0.22;;
26588;SDS011;14235;48.532;8.722;2023-04-01T02:33:39;0.43;;;0.25;;
26588;SDS011;14235;48.532;8.722;2023-04-01T02:36:06;1.38;;;0.30;;
26588;SDS011;14235;48.532;8.722;2023-04-01T02:38:35;0.47;;;0.20;;
26588;SDS011;14235;48.532;8.722;2023-04-01T02:41:01;0.63;;;0.30;;
26588;SDS011;14235;48.532;8.722;2023-04-01T02:43:28;1.00;;;0.30;;
26588;SDS011;14235;48.532;8.722;2023-04-01T02:45:54;2.05;;;0.30;;
26588;SDS011;14235;48.532;8.722;2023-04-01T02:48:20;0.82;;;0.30;;
26588;SDS011;14235;48.532;8.722;2023-04-01T02:50:45;1.42;;;0.28;;
26588;SDS011;14235;48.532;8.722;2023-04-01T02:53:11;0.25;;;0.20;;
26588;SDS011;14235;48.532;8.722;2023-04-01T02:55:37;0.38;;;0.28;;
26588;SDS011;14235;48.532;8.722;2023-04-01T02:58:03;0.35;;;0.20;;
26588;SDS011;14235;48.532;8.722;2023-04-01T03:00:28;0.40;;;0.40;;
26588;SDS011;14235;48.532;8.722;2023-04-01T03:02:54;1.65;;;0.38;;
26588;SDS011;14235;48.532;8.722;2023-04-01T03:05:22;1.05;;;0.50;;
26588;SDS011;14235;48.532;8.722;2023-04-01T03:07:48;0.70;;;0.32;;
26588;SDS011;14235;48.532;8.722;2023-04-01T03:10:14;0.57;;;0.22;;
26588;SDS011;14235;48.532;8.722;2023-04-01T03:12:40;1.05;;;0.17;;
26588;SDS011;14235;48.532;8.722;2023-04-01T03:15:06;2.92;;;0.52;;
26588;SDS011;14235;48.532;8.722;2023-04-01T03:17:34;0.77;;;0.30;;
26588;SDS011;14235;48.532;8.722;2023-04-01T03:20:00;0.47;;;0.22;;
26588;SDS011;14235;48.532;8.722;2023-04-01T03:22:26;0.22;;;0.22;;
26588;SDS011;14235;48.532;8.722;2023-04-01T03:24:54;1.27;;;0.30;;
26588;SDS011;14235;48.532;8.722;2023-04-01T03:27:19;0.20;;;0.20;;
26588;SDS011;14235;48.532;8.722;2023-04-01T03:29:45;0.47;;;0.20;;
26588;SDS011;14235;48.532;8.722;2023-04-01T03:32:11;1.35;;;0.45;;
26588;SDS011;14235;48.532;8.722;2023-04-01T03:34:37;0.10;;;0.10;;
26588;SDS011;14235;48.532;8.722;2023-04-01T03:37:02;0.63;;;0.43;;
26588;SDS011;14235;48.532;8.722;2023-04-01T03:39:28;1.15;;;0.55;;
26588;SDS011;14235;48.532;8.722;2023-04-01T03:41:54;0.43;;;0.32;;
26588;SDS011;14235;48.532;8.722;2023-04-01T03:44:20;0.55;;;0.32;;
26588;SDS011;14235;48.532;8.722;2023-04-01T03:46:46;1.13;;;0.43;;
26588;SDS011;14235;48.532;8.722;2023-04-01T03:49:11;1.33;;;0.40;;
26588;SDS011;14235;48.532;8.722;2023-04-01T03:51:38;2.03;;;0.40;;
26588;SDS011;14235;48.532;8.722;2023-04-01T03:54:04;0.38;;;0.20;;
26588;SDS011;14235;48.532;8.722;2023-04-01T03:56:31;1.00;;;0.52;;
26588;SDS011;14235;48.532;8.722;2023-04-01T03:58:57;1.02;;;0.40;;
26588;SDS011;14235;48.532;8.722;2023-04-01T04:01:22;0.93;;;0.60;;
26588;SDS011;14235;48.532;8.722;2023-04-01T04:03:51;1.98;;;0.60;;
26588;SDS011;14235;48.532;8.722;2023-04-01T04:06:17;1.02;;;0.50;;
26588;SDS011;14235;48.532;8.722;2023-04-01T04:08:43;2.30;;;0.60;;
26588;SDS011;14235;48.532;8.722;2023-04-01T04:11:09;1.33;;;0.60;;
26588;SDS011;14235;48.532;8.722;2023-04-01T04:13:35;0.50;;;0.40;;
26588;SDS011;14235;48.532;8.722;2023-04-01T04:16:02;1.00;;;0.52;;
26588;SDS011;14235;48.532;8.722;2023-04-01T04:18:28;0.85;;;0.70;;
26588;SDS011;14235;48.532;8.722;2023-04-01T04:20:54;2.75;;;0.70;;
26588;SDS011;14235;48.532;8.722;2023-04-01T04:23:20;3.15;;;1.00;;
26588;SDS011;14235;48.532;8.722;2023-04-01T04:25:53;2.42;;;0.80;;
26588;SDS011;14235;48.532;8.722;2023-04-01T04:28:21;1.27;;;0.75;;
26588;SDS011;14235;48.532;8.722;2023-04-01T04:30:47;1.40;;;0.40;;
26588;SDS011;14235;48.532;8.722;2023-04-01T04:33:13;1.83;;;0.45;;
26588;SDS011;14235;48.532;8.722;2023-04-01T04:35:39;2.28;;;1.02;;
26588;SDS011;14235;48.532;8.722;2023-04-01T04:38:05;3.72;;;1.05;;
26588;SDS011;14235;48.532;8.722;2023-04-01T04:40:30;1.77;;;0.43;;
26588;SDS011;14235;48.532;8.722;2023-04-01T04:42:56;1.98;;;0.77;;
26588;SDS011;14235;48.532;8.722;2023-04-01T04:45:22;1.10;;;0.55;;
26588;SDS011;14235;48.532;8.722;2023-04-01T04:47:47;2.70;;;0.70;;
26588;SDS011;14235;48.532;8.722;2023-04-01T04:50:16;1.58;;;0.82;;
26588;SDS011;14235;48.532;8.722;2023-04-01T04:52:42;1.15;;;0.50;;
26588;SDS011;14235;48.532;8.722;2023-04-01T04:55:07;1.33;;;0.60;;
26588;SDS011;14235;48.532;8.722;2023-04-01T04:57:33;2.78;;;0.90;;
26588;SDS011;14235;48.532;8.722;2023-04-01T04:59:59;1.65;;;0.50;;
26588;SDS011;14235;48.532;8.722;2023-04-01T05:02:24;0.60;;;0.52;;
26588;SDS011;14235;48.532;8.722;2023-04-01T05:04:53;0.95;;;0.45;;
26588;SDS011;14235;48.532;8.722;2023-04-01T05:07:18;2.50;;;0.60;;
26588;SDS011;14235;48.532;8.722;2023-04-01T05:09:44;1.10;;;0.57;;
26588;SDS011;14235;48.532;8.722;2023-04-01T05:12:10;2.75;;;1.00;;
26588;SDS011;14235;48.532;8.722;2023-04-01T05:14:39;1.83;;;0.95;;
26588;SDS011;14235;48.532;8.722;2023-04-01T05:17:08;1.23;;;0.77;;
26588;SDS011;14235;48.532;8.722;2023-04-01T05:19:37;0.50;;;0.35;;
26588;SDS011;14235;48.532;8.722;2023-04-01T05:22:06;1.40;;;0.55;;
26588;SDS011;14235;48.532;8.722;2023-04-01T05:24:32;0.73;;;0.68;;
26588;SDS011;14235;48.532;8.722;2023-04-01T05:27:00;0.75;;;0.50;;
26588;SDS011;14235;48.532;8.722;2023-04-01T05:29:26;2.30;;;0.98;;
26588;SDS011;14235;48.532;8.722;2023-04-01T05:31:53;1.20;;;0.60;;
26588;SDS011;14235;48.532;8.722;2023-04-01T05:34:18;1.90;;;0.88;;
26588;SDS011;14235;48.532;8.722;2023-04-01T05:36:44;2.47;;;0.68;;
26588;SDS011;14235;48.532;8.722;2023-04-01T05:39:10;1.50;;;0.65;;
26588;SDS011;14235;48.532;8.722;2023-04-01T05:41:36;1.35;;;0.60;;
26588;SDS011;14235;48.532;8.722;2023-04-01T05:44:03;1.15;;;0.82;;
26588;SDS011;14235;48.532;8.722;2023-04-01T05:46:29;1.52;;;0.55;;
26588;SDS011;14235;48.532;8.722;2023-04-01T05:48:55;1.90;;;0.63;;
26588;SDS011;14235;48.532;8.722;2023-04-01T05:51:21;1.55;;;0.80;;
26588;SDS011;14235;48.532;8.722;2023-04-01T05:53:48;0.93;;;0.75;;
26588;SDS011;14235;48.532;8.722;2023-04-01T05:56:14;1.33;;;0.60;;
26588;SDS011;14235;48.532;8.722;2023-04-01T05:58:42;1.45;;;0.93;;
26588;SDS011;14235;48.532;8.722;2023-04-01T06:01:09;0.90;;;0.60;;
26588;SDS011;14235;48.532;8.722;2023-04-01T06:03:36;0.75;;;0.43;;
26588;SDS011;14235;48.532;8.722;2023-04-01T06:06:02;1.23;;;0.73;;
26588;SDS011;14235;48.532;8.722;2023-04-01T06:08:30;0.65;;;0.65;;
26588;SDS011;14235;48.532;8.722;2023-04-01T06:18:46;1.95;;;0.50;;
26588;SDS011;14235;48.532;8.722;2023-04-01T06:31:41;2.38;;;0.60;;
26588;SDS011;14235;48.532;8.722;2023-04-01T06:34:45;2.17;;;0.90;;
26588;SDS011;14235;48.532;8.722;2023-04-01T06:40:09;2.47;;;1.08;;
26588;SDS011;14235;48.532;8.722;2023-04-01T06:46:02;2.65;;;0.80;;
26588;SDS011;14235;48.532;8.722;2023-04-01T06:52:01;1.38;;;0.80;;
26588;SDS011;14235;48.532;8.722;2023-04-01T06:57:58;1.55;;;0.85;;
26588;SDS011;14235;48.532;8.722;2023-04-01T07:00:29;1.65;;;0.57;;
26588;SDS011;14235;48.532;8.722;2023-04-01T07:03:06;1.73;;;0.80;;
26588;SDS011;14235;48.532;8.722;2023-04-01T07:05:56;1.02;;;0.80;;
26588;SDS011;14235;48.532;8.722;2023-04-01T07:08:27;2.63;;;0.82;;
26588;SDS011;14235;48.532;8.722;2023-04-01T07:11:04;1.77;;;0.90;;
26588;SDS011;14235;48.532;8.722;2023-04-01T07:13:39;1.48;;;0.90;;
26588;SDS011;14235;48.532;8.722;2023-04-01T07:22:00;2.88;;;1.00;;
26588;SDS011;14235;48.532;8.722;2023-04-01T07:24:35;1.00;;;0.90;;
26588;SDS011;14235;48.532;8.722;2023-04-01T07:27:05;1.42;;;0.95;;
26588;SDS011;14235;48.532;8.722;2023-04-01T07:29:34;0.98;;;0.70;;
26588;SDS011;14235;48.532;8.722;2023-04-01T07:34:42;2.20;;;1.15;;
26588;SDS011;14235;48.532;8.722;2023-04-01T07:37:18;0.90;;;0.70;;
26588;SDS011;14235;48.532;8.722;2023-04-01T07:45:39;2.00;;;0.93;;
26588;SDS011;14235;48.532;8.722;2023-04-01T07:51:27;1.40;;;0.85;;
26588;SDS011;14235;48.532;8.722;2023-04-01T07:56:56;1.25;;;0.70;;
26588;SDS011;14235;48.532;8.722;2023-04-01T07:59:32;1.42;;;0.60;;
26588;SDS011;14235;48.532;8.722;2023-04-01T08:05:18;2.42;;;0.90;;
26588;SDS011;14235;48.532;8.722;2023-04-01T08:10:43;3.00;;;1.00;;
26588;SDS011;14235;48.532;8.722;2023-04-01T08:16:08;2.25;;;0.85;;
26588;SDS011;14235;48.532;8.722;2023-04-01T08:18:56;1.13;;;0.60;;
26588;SDS011;14235;48.532;8.722;2023-04-01T08:21:25;2.10;;;0.70;;
26588;SDS011;14235;48.532;8.722;2023-04-01T08:23:56;2.08;;;0.70;;
26588;SDS011;14235;48.532;8.722;2023-04-01T08:29:06;1.98;;;0.90;;
26588;SDS011;14235;48.532;8.722;2023-04-01T08:31:43;2.25;;;0.90;;
26588;SDS011;14235;48.532;8.722;2023-04-01T08:34:21;0.88;;;0.60;;
26588;SDS011;14235;48.532;8.722;2023-04-01T08:37:03;1.02;;;0.73;;
26588;SDS011;14235;48.532;8.722;2023-04-01T08:39:37;1.77;;;0.80;;
26588;SDS011;14235;48.532;8.722;2023-04-01T08:51:00;0.90;;;0.90;;
26588;SDS011;14235;48.532;8.722;2023-04-01T08:54:04;0.55;;;0.50;;
26588;SDS011;14235;48.532;8.722;2023-04-01T08:56:38;1.00;;;0.63;;
26588;SDS011;14235;48.532;8.722;2023-04-01T09:02:15;0.57;;;0.35;;
26588;SDS011;14235;48.532;8.722;2023-04-01T09:11:11;0.82;;;0.40;;
26588;SDS011;14235;48.532;8.722;2023-04-01T09:14:48;0.50;;;0.50;;
26588;SDS011;14235;48.532;8.722;2023-04-01T09:20:06;1.27;;;0.60;;
26588;SDS011;14235;48.532;8.722;2023-04-01T09:33:16;0.93;;;0.30;;
26588;SDS011;14235;48.532;8.722;2023-04-01T09:36:03;1.35;;;0.30;;
26588;SDS011;14235;48.532;8.722;2023-04-01T09:38:56;0.35;;;0.30;;
26588;SDS011;14235;48.532;8.722;2023-04-01T09:41:27;1.38;;;0.30;;
26588;SDS011;14235;48.532;8.722;2023-04-01T09:44:11;0.75;;;0.17;;
26588;SDS011;14235;48.532;8.722;2023-04-01T09:52:50;0.63;;;0.30;;
26588;SDS011;14235;48.532;8.722;2023-04-01T10:01:02;0.15;;;0.15;;
26588;SDS011;14235;48.532;8.722;2023-04-01T10:20:17;0.20;;;0.20;;
26588;SDS011;14235;48.532;8.722;2023-04-01T10:23:27;0.47;;;0.20;;
26588;SDS011;14235;48.532;8.722;2023-04-01T10:28:53;0.30;;;0.30;;
26588;SDS011;14235;48.532;8.722;2023-04-01T10:31:42;0.52;;;0.20;;
26588;SDS011;14235;48.532;8.722;2023-04-01T10:43:22;0.20;;;0.20;;
26588;SDS011;14235;48.532;8.722;2023-04-01T10:54:49;0.00;;;0.00;;
26588;SDS011;14235;48.532;8.722;2023-04-01T11:28:16;0.05;;;0.05;;
26588;SDS011;14235;48.532;8.722;2023-04-01T11:33:57;0.35;;;0.22;;
26588;SDS011;14235;48.532;8.722;2023-04-01T11:39:31;0.30;;;0.30;;
26588;SDS011;14235;48.532;8.722;2023-04-01T11:44:45;1.40;;;0.47;;
26588;SDS011;14235;48.532;8.722;2023-04-01T11:53:11;0.30;;;0.30;;
26588;SDS011;14235;48.532;8.722;2023-04-01T12:03:38;0.30;;;0.20;;
26588;SDS011;14235;48.532;8.722;2023-04-01T12:06:38;0.30;;;0.30;;
26588;SDS011;14235;48.532;8.722;2023-04-01T12:12:20;0.30;;;0.13;;
26588;SDS011;14235;48.532;8.722;2023-04-01T12:18:00;0.32;;;0.20;;
26588;SDS011;14235;48.532;8.722;2023-04-01T12:23:29;0.13;;;0.13;;
26588;SDS011;14235;48.532;8.722;2023-04-01T12:31:47;0.10;;;0.10;;
26588;SDS011;14235;48.532;8.722;2023-04-01T12:34:27;0.00;;;0.00;;
26588;SDS011;14235;48.532;8.722;2023-04-01T12:37:04;0.10;;;0.10;;
26588;SDS011;14235;48.532;8.722;2023-04-01T12:39:48;0.10;;;0.10;;
26588;SDS011;14235;48.532;8.722;2023-04-01T12:45:35;0.20;;;0.20;;
26588;SDS011;14235;48.532;8.722;2023-04-01T12:48:24;0.90;;;0.35;;
26588;SDS011;14235;48.532;8.722;2023-04-01T12:51:20;0.45;;;0.20;;
26588;SDS011;14235;48.532;8.722;2023-04-01T13:00:01;0.10;;;0.10;;
26588;SDS011;14235;48.532;8.722;2023-04-01T13:16:10;0.40;;;0.10;;
26588;SDS011;14235;48.532;8.722;2023-04-01T13:29:44;0.10;;;0.10;;
26588;SDS011;14235;48.532;8.722;2023-04-01T13:40:36;0.30;;;0.20;;
26588;SDS011;14235;48.532;8.722;2023-04-01T13:46:06;0.32;;;0.20;;
26588;SDS011;14235;48.532;8.722;2023-04-01T14:10:50;0.20;;;0.20;;
26588;SDS011;14235;48.532;8.722;2023-04-01T14:13:58;0.30;;;0.30;;
26588;SDS011;14235;48.532;8.722;2023-04-01T14:22:05;0.10;;;0.10;;
26588;SDS011;14235;48.532;8.722;2023-04-01T14:50:05;0.38;;;0.32;;
26588;SDS011;14235;48.532;8.722;2023-04-01T14:52:39;1.50;;;0.30;;
26588;SDS011;14235;48.532;8.722;2023-04-01T15:03:48;0.70;;;0.47;;
26588;SDS011;14235;48.532;8.722;2023-04-01T15:09:32;0.40;;;0.40;;
26588;SDS011;14235;48.532;8.722;2023-04-01T15:12:30;0.45;;;0.45;;
26588;SDS011;14235;48.532;8.722;2023-04-01T15:15:03;0.50;;;0.50;;
26588;SDS011;14235;48.532;8.722;2023-04-01T15:20:35;0.57;;;0.57;;
26588;SDS011;14235;48.532;8.722;2023-04-01T15:23:39;0.82;;;0.70;;
26588;SDS011;14235;48.532;8.722;2023-04-01T15:26:40;0.90;;;0.85;;
26588;SDS011;14235;48.532;8.722;2023-04-01T15:41:16;0.40;;;0.40;;
26588;SDS011;14235;48.532;8.722;2023-04-01T15:43:50;0.60;;;0.60;;
26588;SDS011;14235;48.532;8.722;2023-04-01T15:49:03;0.63;;;0.63;;
26588;SDS011;14235;48.532;8.722;2023-04-01T16:00:27;2.08;;;0.50;;
26588;SDS011;14235;48.532;8.722;2023-04-01T16:05:52;0.73;;;0.73;;
26588;SDS011;14235;48.532;8.722;2023-04-01T16:08:37;0.80;;;0.60;;
26588;SDS011;14235;48.532;8.722;2023-04-01T16:16:43;0.80;;;0.45;;
26588;SDS011;14235;48.532;8.722;2023-04-01T16:19:16;0.70;;;0.70;;
26588;SDS011;14235;48.532;8.722;2023-04-01T16:21:46;1.02;;;0.90;;
26588;SDS011;14235;48.532;8.722;2023-04-01T16:24:46;1.73;;;0.88;;
26588;SDS011;14235;48.532;8.722;2023-04-01T16:27:40;1.70;;;0.80;;
26588;SDS011;14235;48.532;8.722;2023-04-01T16:30:38;0.90;;;0.90;;
26588;SDS011;14235;48.532;8.722;2023-04-01T16:41:11;1.30;;;1.17;;
26588;SDS011;14235;48.532;8.722;2023-04-01T16:48:59;1.52;;;1.13;;
26588;SDS011;14235;48.532;8.722;2023-04-01T16:57:23;1.25;;;1.00;;
26588;SDS011;14235;48.532;8.722;2023-04-01T16:59:59;2.25;;;1.77;;
26588;SDS011;14235;48.532;8.722;2023-04-01T17:03:13;1.70;;;1.60;;
26588;SDS011;14235;48.532;8.722;2023-04-01T17:11:21;1.52;;;1.42;;
26588;SDS011;14235;48.532;8.722;2023-04-01T17:13:58;3.70;;;1.70;;
26588;SDS011;14235;48.532;8.722;2023-04-01T17:20:01;1.17;;;1.02;;
26588;SDS011;14235;48.532;8.722;2023-04-01T17:25:32;3.10;;;2.80;;
26588;SDS011;14235;48.532;8.722;2023-04-01T17:31:12;1.90;;;1.80;;
26588;SDS011;14235;48.532;8.722;2023-04-01T17:33:55;2.83;;;1.40;;
26588;SDS011;14235;48.532;8.722;2023-04-01T17:39:19;2.58;;;2.28;;
26588;SDS011;14235;48.532;8.722;2023-04-01T17:42:09;2.05;;;1.85;;
26588;SDS011;14235;48.532;8.722;2023-04-01T17:50:24;3.38;;;2.40;;
26588;SDS011;14235;48.532;8.722;2023-04-01T17:56:35;3.40;;;1.77;;
26588;SDS011;14235;48.532;8.722;2023-04-01T17:59:21;2.00;;;1.75;;
26588;SDS011;14235;48.532;8.722;2023-04-01T18:07:32;1.27;;;1.17;;
26588;SDS011;14235;48.532;8.722;2023-04-01T18:10:15;1.30;;;0.85;;
26588;SDS011;14235;48.532;8.722;2023-04-01T18:20:59;1.35;;;1.15;;
26588;SDS011;14235;48.532;8.722;2023-04-01T18:23:30;2.58;;;1.05;;
26588;SDS011;14235;48.532;8.722;2023-04-01T18:32:07;1.60;;;1.50;;
26588;SDS011;14235;48.532;8.722;2023-04-01T18:37:50;1.25;;;1.17;;
26588;SDS011;14235;48.532;8.722;2023-04-01T18:40:35;0.90;;;0.90;;
26588;SDS011;14235;48.532;8.722;2023-04-01T18:43:09;2.38;;;0.82;;
26588;SDS011;14235;48.532;8.722;2023-04-01T18:45:36;1.60;;;0.68;;
26588;SDS011;14235;48.532;8.722;2023-04-01T18:48:17;0.80;;;0.80;;
26588;SDS011;14235;48.532;8.722;2023-04-01T18:51:16;1.15;;;1.00;;
26588;SDS011;14235;48.532;8.722;2023-04-01T18:54:00;1.63;;;1.52;;
26588;SDS011;14235;48.532;8.722;2023-04-01T18:56:39;1.70;;;1.60;;
26588;SDS011;14235;48.532;8.722;2023-04-01T18:59:19;1.30;;;1.20;;
26588;SDS011;14235;48.532;8.722;2023-04-01T19:04:50;0.98;;;0.98;;
26588;SDS011;14235;48.532;8.722;2023-04-01T19:15:58;2.88;;;2.58;;
26588;SDS011;14235;48.532;8.722;2023-04-01T19:18:54;2.70;;;2.50;;
26588;SDS011;14235;48.532;8.722;2023-04-01T19:21:29;2.00;;;1.90;;
26588;SDS011;14235;48.532;8.722;2023-04-01T19:26:48;1.90;;;1.77;;
26588;SDS011;14235;48.532;8.722;2023-04-01T19:29:35;1.15;;;1.15;;
26588;SDS011;14235;48.532;8.722;2023-04-01T19:32:33;1.70;;;0.90;;
26588;SDS011;14235;48.532;8.722;2023-04-01T19:38:08;0.70;;;0.70;;
26588;SDS011;14235;48.532;8.722;2023-04-01T19:40:52;1.48;;;0.60;;
26588;SDS011;14235;48.532;8.722;2023-04-01T19:52:29;1.67;;;0.40;;
26588;SDS011;14235;48.532;8.722;2023-04-01T20:15:22;2.60;;;0.75;;
26588;SDS011;14235;48.532;8.722;2023-04-01T20:18:08;1.33;;;1.10;;
26588;SDS011;14235;48.532;8.722;2023-04-01T20:20:57;7.03;;;6.35;;
26588;SDS011;14235;48.532;8.722;2023-04-01T20:23:41;16.25;;;14.63;;
26588;SDS011;14235;48.532;8.722;2023-04-01T20:26:12;15.23;;;13.63;;
26588;SDS011;14235;48.532;8.722;2023-04-01T20:31:31;4.45;;;4.05;;
26588;SDS011;14235;48.532;8.722;2023-04-01T20:39:27;1.65;;;1.55;;
26588;SDS011;14235;48.532;8.722;2023-04-01T20:45:01;1.30;;;1.30;;
26588;SDS011;14235;48.532;8.722;2023-04-01T20:47:55;6.93;;;6.32;;
26588;SDS011;14235;48.532;8.722;2023-04-01T20:50:31;6.95;;;6.40;;
26588;SDS011;14235;48.532;8.722;2023-04-01T20:53:25;5.57;;;4.95;;
26588;SDS011;14235;48.532;8.722;2023-04-01T20:56:06;3.63;;;2.22;;
26588;SDS011;14235;48.532;8.722;2023-04-01T21:01:13;10.63;;;7.13;;
26588;SDS011;14235;48.532;8.722;2023-04-01T21:09:51;9.90;;;8.88;;
26588;SDS011;14235;48.532;8.722;2023-04-01T21:12:34;8.10;;;7.40;;
26588;SDS011;14235;48.532;8.722;2023-04-01T21:18:14;4.65;;;4.25;;
26588;SDS011;14235;48.532;8.722;2023-04-01T21:41:16;0.85;;;0.60;;
26588;SDS011;14235;48.532;8.722;2023-04-01T21:44:03;0.85;;;0.60;;
26588;SDS011;14235;48.532;8.722;2023-04-01T21:52:41;0.40;;;0.40;;
26588;SDS011;14235;48.532;8.722;2023-04-01T22:07:12;0.30;;;0.30;;
26588;SDS011;14235;48.532;8.722;2023-04-01T22:10:00;0.30;;;0.30;;
26588;SDS011;14235;48.532;8.722;2023-04-01T22:12:40;1.45;;;0.40;;
26588;SDS011;14235;48.532;8.722;2023-04-01T22:18:11;1.35;;;0.40;;
26588;SDS011;14235;48.532;8.722;2023-04-01T22:20:53;0.77;;;0.35;;
26588;SDS011;14235;48.532;8.722;2023-04-01T22:23:36;0.40;;;0.40;;
26588;SDS011;14235;48.532;8.722;2023-04-01T22:26:27;2.80;;;2.60;;
26588;SDS011;14235;48.532;8.722;2023-04-01T22:29:00;2.00;;;1.90;;
26588;SDS011;14235;48.532;8.722;2023-04-01T22:31:52;1.23;;;1.13;;
26588;SDS011;14235;48.532;8.722;2023-04-01T22:34:24;1.70;;;1.60;;
26588;SDS011;14235;48.532;8.722;2023-04-01T22:37:01;1.42;;;1.42;;
26588;SDS011;14235;48.532;8.722;2023-04-01T22:39:55;0.88;;;0.88;;
26588;SDS011;14235;48.532;8.722;2023-04-01T22:42:43;0.70;;;0.70;;
26588;SDS011;14235;48.532;8.722;2023-04-01T22:45:27;1.42;;;0.50;;
26588;SDS011;14235;48.532;8.722;2023-04-01T22:49:11;0.68;;;0.55;;
26588;SDS011;14235;48.532;8.722;2023-04-01T22:56:28;0.50;;;0.50;;
26588;SDS011;14235;48.532;8.722;2023-04-01T22:59:31;0.60;;;0.60;;
26588;SDS011;14235;48.532;8.722;2023-04-01T23:02:23;0.50;;;0.50;;
26588;SDS011;14235;48.532;8.722;2023-04-01T23:04:57;0.60;;;0.40;;
26588;SDS011;14235;48.532;8.722;2023-04-01T23:07:41;0.50;;;0.50;;
26588;SDS011;14235;48.532;8.722;2023-04-01T23:13:05;0.45;;;0.45;;
26588;SDS011;14235;48.532;8.722;2023-04-01T23:15:37;0.40;;;0.40;;
26588;SDS011;14235;48.532;8.722;2023-04-01T23:20:50;0.50;;;0.50;;
26588;SDS011;14235;48.532;8.722;2023-04-01T23:29:03;0.40;;;0.40;;
26588;SDS011;14235;48.532;8.722;2023-04-01T23:31:37;0.60;;;0.60;;
26588;SDS011;14235;48.532;8.722;2023-04-01T23:39:22;0.70;;;0.65;;
26588;SDS011;14235;48.532;8.722;2023-04-01T23:41:54;0.50;;;0.50;;
26588;SDS011;14235;48.532;8.722;2023-04-01T23:44:25;0.73;;;0.38;;
26588;SDS011;14235;48.532;8.722;2023-04-01T23:46:52;0.60;;;0.60;;
26588;SDS011;14235;48.532;8.722;2023-04-01T23:49:28;0.50;;;0.50;;
26588;SDS011;14235;48.532;8.722;2023-04-01T23:52:00;2.15;;;0.52;;
26588;SDS011;14235;48.532;8.722;2023-04-01T23:54:34;2.55;;;0.50;;
26588;SDS011;14235;48.532;8.722;2023-04-01T23:57:21;1.40;;;0.52;;
